PWSweather.com
Personal Weather Stations
Station Observations
PALOALTOCA
Palo Verde, Palo Alto, CA 94303

Palo VerdePalo Alto, CA 94303

Lat: 37.431491, Lon: -122.110886

Elevation: 24

Station Type: RainWise MKIII-LR

Latest ConditionsUpdated 9:00:00 AM PST Sunday, Jan 26, 2020
Currently Today's Max Today's Min Today's Average
Temperature 55.3°F12.9°C 57.0°F13.9°C 54.0°F12.2°C 55.5°F13.1°C
Dew Point 55.0°F12.8°C 56.1°F13.4°C 53.4°F11.9°C 54.9°F12.7°C
Winds 1.3 mph ENE2.1 kmh ENE 2.1 mph -3.4 kmh - - 0.2 mph 0.3 kmh
Wind Gusts 3.5 mph5.6 kmh 6.8 mph10.9 kmh - -
Humidity 99% 99% 95% 98%
Pressure 30.22 in1023.4 mb 30.22 in1023.4 mb 30.13 in1020.3 mb -
Precipitation - 0.07 in1.8 mm - -
Hour Temp Dew Point Humidity Winds Wind Gusts Pressure Precip Precip Rate Daily Precip Total
09:00 AM 55.3°F12.9°C 55.0°F12.8°C 99% 1.3 mph ENE2.1 kmh ENE 3.5 mph5.6 kmh 30.22 in1023.4 mb 0.00 in0.0 mm 0.00 in0.0 mm 0.07 in1.8 mm
08:55 AM 55.2°F12.9°C 54.9°F12.7°C 99% 0.7 mph ENE1.1 kmh ENE 2.8 mph4.5 kmh 30.22 in1023.4 mb 0.00 in0.0 mm 0.00 in0.0 mm 0.07 in1.8 mm
08:50 AM 55.0°F12.8°C 54.7°F12.6°C 99% 0.3 mph NE0.5 kmh NE 2.1 mph3.4 kmh 30.22 in1023.4 mb 0.00 in0.0 mm 0.00 in0.0 mm 0.07 in1.8 mm
08:45 AM 54.9°F12.7°C 54.6°F12.6°C 99% 0.5 mph ENE0.8 kmh ENE 2.8 mph4.5 kmh 30.22 in1023.4 mb 0.01 in0.3 mm 0.00 in0.0 mm 0.07 in1.8 mm
08:40 AM 54.9°F12.7°C 54.6°F12.6°C 99% Calm Calm -- 30.22 in1023.4 mb 0.01 in0.3 mm 0.00 in0.0 mm 0.07 in1.8 mm
08:35 AM 54.9°F12.7°C 54.6°F12.6°C 99% 0.2 mph E0.3 kmh E 2.3 mph3.7 kmh 30.22 in1023.4 mb 0.01 in0.3 mm 0.00 in0.0 mm 0.07 in1.8 mm
08:30 AM 54.9°F12.7°C 54.6°F12.6°C 99% 0.9 mph NNE1.4 kmh NNE 2.6 mph4.2 kmh 30.22 in1023.4 mb 0.01 in0.3 mm 0.00 in0.0 mm 0.07 in1.8 mm
08:25 AM 54.8°F12.7°C 54.6°F12.6°C 99% 0.3 mph NNE0.5 kmh NNE 2.3 mph3.7 kmh 30.22 in1023.4 mb 0.01 in0.3 mm 0.00 in0.0 mm 0.07 in1.8 mm
08:20 AM 54.8°F12.7°C 54.5°F12.5°C 99% Calm Calm -- 30.21 in1023.0 mb 0.01 in0.3 mm 0.00 in0.0 mm 0.07 in1.8 mm
08:15 AM 54.7°F12.6°C 54.4°F12.4°C 99% Calm Calm -- 30.21 in1023.0 mb 0.01 in0.3 mm 0.00 in0.0 mm 0.07 in1.8 mm
08:10 AM 54.7°F12.6°C 54.4°F12.4°C 99% Calm Calm -- 30.21 in1023.0 mb 0.01 in0.3 mm 0.00 in0.0 mm 0.07 in1.8 mm
08:05 AM 54.7°F12.6°C 54.4°F12.4°C 99% Calm Calm -- 30.21 in1023.0 mb 0.01 in0.3 mm 0.00 in0.0 mm 0.07 in1.8 mm
08:00 AM 54.7°F12.6°C 54.4°F12.4°C 99% 0.1 mph W0.2 kmh W 2.3 mph3.7 kmh 30.21 in1023.0 mb 0.01 in0.3 mm 0.00 in0.0 mm 0.07 in1.8 mm
07:55 AM 54.6°F12.6°C 54.3°F12.4°C 99% 0.1 mph W0.2 kmh W 2.3 mph3.7 kmh 30.20 in1022.7 mb 0.01 in0.3 mm 0.00 in0.0 mm 0.07 in1.8 mm
07:50 AM 54.6°F12.6°C 54.3°F12.4°C 99% Calm Calm -- 30.20 in1022.7 mb 0.01 in0.3 mm 0.12 in3.0 mm 0.07 in1.8 mm
07:45 AM 54.6°F12.6°C 54.3°F12.4°C 99% Calm Calm -- 30.20 in1022.7 mb 0.00 in0.0 mm 0.00 in0.0 mm 0.06 in1.5 mm
07:40 AM 54.6°F12.6°C 54.3°F12.4°C 99% Calm Calm -- 30.19 in1022.4 mb 0.00 in0.0 mm 0.00 in0.0 mm 0.06 in1.5 mm
07:35 AM 54.5°F12.5°C 54.2°F12.3°C 99% Calm Calm -- 30.19 in1022.4 mb 0.00 in0.0 mm 0.00 in0.0 mm 0.06 in1.5 mm
07:30 AM 54.5°F12.5°C 54.2°F12.3°C 99% Calm Calm -- 30.19 in1022.4 mb 0.00 in0.0 mm 0.00 in0.0 mm 0.06 in1.5 mm
07:25 AM 54.5°F12.5°C 54.2°F12.3°C 99% Calm Calm -- 30.19 in1022.4 mb 0.00 in0.0 mm 0.00 in0.0 mm 0.06 in1.5 mm
07:20 AM 54.5°F12.5°C 54.2°F12.3°C 99% Calm Calm -- 30.19 in1022.4 mb 0.00 in0.0 mm 0.00 in0.0 mm 0.06 in1.5 mm
07:15 AM 54.5°F12.5°C 54.2°F12.3°C 99% Calm Calm -- 30.18 in1022.0 mb 0.00 in0.0 mm 0.00 in0.0 mm 0.06 in1.5 mm
07:10 AM 54.5°F12.5°C 54.2°F12.3°C 99% Calm Calm 1.2 mph1.9 kmh 30.18 in1022.0 mb 0.00 in0.0 mm 0.00 in0.0 mm 0.06 in1.5 mm
07:05 AM 54.4°F12.4°C 54.1°F12.3°C 99% 0.2 mph SSW0.3 kmh SSW 2.1 mph3.4 kmh 30.18 in1022.0 mb 0.00 in0.0 mm 0.00 in0.0 mm 0.06 in1.5 mm
07:00 AM 54.3°F12.4°C 53.7°F12.1°C 98% 0.1 mph S0.2 kmh S 1.6 mph2.6 kmh 30.18 in1022.0 mb 0.00 in0.0 mm 0.00 in0.0 mm 0.06 in1.5 mm
06:55 AM 54.2°F12.3°C 53.6°F12.0°C 98% Calm Calm -- 30.18 in1022.0 mb 0.00 in0.0 mm 0.00 in0.0 mm 0.06 in1.5 mm
06:50 AM 54.1°F12.3°C 53.5°F11.9°C 98% Calm Calm -- 30.18 in1022.0 mb 0.00 in0.0 mm 0.00 in0.0 mm 0.06 in1.5 mm
06:45 AM 54.1°F12.3°C 53.5°F11.9°C 98% Calm Calm -- 30.17 in1021.7 mb 0.00 in0.0 mm 0.00 in0.0 mm 0.06 in1.5 mm
06:40 AM 54.0°F12.2°C 53.4°F11.9°C 98% Calm Calm -- 30.17 in1021.7 mb 0.00 in0.0 mm 0.00 in0.0 mm 0.06 in1.5 mm
06:35 AM 54.1°F12.3°C 53.5°F11.9°C 98% Calm Calm -- 30.17 in1021.7 mb 0.00 in0.0 mm 0.00 in0.0 mm 0.06 in1.5 mm
06:30 AM 54.2°F12.3°C 53.6°F12.0°C 98% Calm Calm -- 30.17 in1021.7 mb 0.00 in0.0 mm 0.00 in0.0 mm 0.06 in1.5 mm
06:25 AM 54.3°F12.4°C 53.7°F12.1°C 98% Calm Calm -- 30.17 in1021.7 mb 0.00 in0.0 mm 0.00 in0.0 mm 0.06 in1.5 mm
06:20 AM 54.3°F12.4°C 53.7°F12.1°C 98% Calm Calm -- 30.17 in1021.7 mb 0.00 in0.0 mm 0.00 in0.0 mm 0.06 in1.5 mm
06:15 AM 54.3°F12.4°C 53.8°F12.1°C 98% Calm Calm -- 30.17 in1021.7 mb 0.00 in0.0 mm 0.00 in0.0 mm 0.06 in1.5 mm
06:10 AM 54.4°F12.4°C 53.8°F12.1°C 98% Calm Calm -- 30.16 in1021.3 mb 0.00 in0.0 mm 0.00 in0.0 mm 0.06 in1.5 mm
06:05 AM 54.4°F12.4°C 53.8°F12.1°C 98% Calm Calm -- 30.16 in1021.3 mb 0.00 in0.0 mm 0.00 in0.0 mm 0.06 in1.5 mm
06:00 AM 54.4°F12.4°C 53.8°F12.1°C 98% Calm Calm -- 30.16 in1021.3 mb 0.00 in0.0 mm 0.00 in0.0 mm 0.06 in1.5 mm
05:55 AM 54.5°F12.5°C 53.9°F12.2°C 98% Calm Calm -- 30.17 in1021.7 mb 0.00 in0.0 mm 0.00 in0.0 mm 0.06 in1.5 mm
05:50 AM 54.5°F12.5°C 53.9°F12.2°C 98% Calm Calm -- 30.16 in1021.3 mb 0.01 in0.3 mm 0.00 in0.0 mm 0.06 in1.5 mm
05:45 AM 54.5°F12.5°C 53.9°F12.2°C 98% Calm Calm -- 30.16 in1021.3 mb 0.01 in0.3 mm 0.00 in0.0 mm 0.06 in1.5 mm
05:40 AM 54.5°F12.5°C 54.0°F12.2°C 98% Calm Calm -- 30.16 in1021.3 mb 0.01 in0.3 mm 0.00 in0.0 mm 0.06 in1.5 mm
05:35 AM 54.7°F12.6°C 54.1°F12.3°C 98% Calm Calm -- 30.16 in1021.3 mb 0.01 in0.3 mm 0.00 in0.0 mm 0.06 in1.5 mm
05:30 AM 54.8°F12.7°C 54.2°F12.3°C 98% Calm Calm -- 30.16 in1021.3 mb 0.01 in0.3 mm 0.00 in0.0 mm 0.06 in1.5 mm
05:25 AM 54.8°F12.7°C 54.2°F12.3°C 98% 0.6 mph N1.0 kmh N 2.6 mph4.2 kmh 30.16 in1021.3 mb 0.02 in0.5 mm 0.00 in0.0 mm 0.06 in1.5 mm
05:20 AM 54.9°F12.7°C 54.0°F12.2°C 97% Calm Calm -- 30.16 in1021.3 mb 0.02 in0.5 mm 0.00 in0.0 mm 0.06 in1.5 mm
05:15 AM 54.8°F12.7°C 54.0°F12.2°C 97% Calm Calm -- 30.16 in1021.3 mb 0.03 in0.8 mm 0.00 in0.0 mm 0.06 in1.5 mm
05:10 AM 54.8°F12.7°C 53.9°F12.2°C 97% Calm Calm -- 30.16 in1021.3 mb 0.04 in1.0 mm 0.00 in0.0 mm 0.06 in1.5 mm
05:05 AM 54.8°F12.7°C 54.0°F12.2°C 97% Calm Calm -- 30.16 in1021.3 mb 0.05 in1.3 mm 0.00 in0.0 mm 0.06 in1.5 mm
05:00 AM 55.0°F12.8°C 54.1°F12.3°C 97% Calm Calm -- 30.16 in1021.3 mb 0.05 in1.3 mm 0.00 in0.0 mm 0.06 in1.5 mm
04:55 AM 55.1°F12.8°C 54.2°F12.3°C 97% Calm Calm -- 30.15 in1021.0 mb 0.06 in1.5 mm 0.12 in3.0 mm 0.06 in1.5 mm
04:50 AM 55.2°F12.9°C 54.3°F12.4°C 97% Calm Calm -- 30.15 in1021.0 mb 0.05 in1.3 mm 0.00 in0.0 mm 0.05 in1.3 mm
04:45 AM 55.3°F12.9°C 54.5°F12.5°C 97% Calm Calm -- 30.15 in1021.0 mb 0.05 in1.3 mm 0.00 in0.0 mm 0.05 in1.3 mm
04:40 AM 55.5°F13.1°C 54.6°F12.6°C 97% Calm Calm -- 30.15 in1021.0 mb 0.05 in1.3 mm 0.00 in0.0 mm 0.05 in1.3 mm
04:35 AM 55.6°F13.1°C 54.5°F12.5°C 96% Calm Calm -- 30.15 in1021.0 mb 0.05 in1.3 mm 0.00 in0.0 mm 0.05 in1.3 mm
04:30 AM 55.8°F13.2°C 54.7°F12.6°C 96% 0.2 mph WSW0.3 kmh WSW 2.1 mph3.4 kmh 30.15 in1021.0 mb 0.05 in1.3 mm 0.12 in3.0 mm 0.05 in1.3 mm
04:25 AM 56.0°F13.3°C 54.9°F12.7°C 96% 0.2 mph SW0.3 kmh SW 2.1 mph3.4 kmh 30.15 in1021.0 mb 0.04 in1.0 mm 0.00 in0.0 mm 0.04 in1.0 mm
04:20 AM 56.3°F13.5°C 55.1°F12.8°C 96% Calm Calm -- 30.16 in1021.3 mb 0.04 in1.0 mm 0.12 in3.0 mm 0.04 in1.0 mm
04:15 AM 56.4°F13.6°C 55.3°F12.9°C 96% Calm Calm -- 30.15 in1021.0 mb 0.03 in0.8 mm 0.12 in3.0 mm 0.03 in0.8 mm
04:10 AM 56.7°F13.7°C 55.6°F13.1°C 96% 0.6 mph WSW1.0 kmh WSW 4.4 mph7.1 kmh 30.15 in1021.0 mb 0.02 in0.5 mm 0.12 in3.0 mm 0.02 in0.5 mm
04:05 AM 56.8°F13.8°C 55.7°F13.2°C 96% 0.5 mph WNW0.8 kmh WNW 2.1 mph3.4 kmh 30.15 in1021.0 mb 0.01 in0.3 mm 0.00 in0.0 mm 0.01 in0.3 mm
04:00 AM 56.9°F13.8°C 55.8°F13.2°C 96% 1.5 mph W2.4 kmh W 4.0 mph6.4 kmh 30.15 in1021.0 mb 0.01 in0.3 mm 0.01 in0.3 mm 0.01 in0.3 mm
03:55 AM 56.9°F13.8°C 56.1°F13.4°C 97% 1.5 mph WNW2.4 kmh WNW 3.5 mph5.6 kmh 30.15 in1021.0 mb 0.00 in0.0 mm 0.00 in0.0 mm 0.00 in0.0 mm
03:50 AM 56.9°F13.8°C 56.1°F13.4°C 97% 0.4 mph WSW0.6 kmh WSW 2.1 mph3.4 kmh 30.15 in1021.0 mb 0.00 in0.0 mm 0.00 in0.0 mm 0.00 in0.0 mm
03:45 AM 56.9°F13.8°C 56.1°F13.4°C 97% 0.9 mph WSW1.4 kmh WSW 4.4 mph7.1 kmh 30.14 in1020.7 mb 0.00 in0.0 mm 0.00 in0.0 mm 0.00 in0.0 mm
03:40 AM 56.8°F13.8°C 56.0°F13.3°C 97% 1.8 mph WSW2.9 kmh WSW 4.9 mph7.9 kmh 30.15 in1021.0 mb 0.00 in0.0 mm 0.00 in0.0 mm 0.00 in0.0 mm
03:35 AM 56.5°F13.6°C 56.0°F13.3°C 98% 1.0 mph WSW1.6 kmh WSW 3.3 mph5.3 kmh 30.15 in1021.0 mb 0.00 in0.0 mm 0.00 in0.0 mm 0.00 in0.0 mm
03:30 AM 56.4°F13.6°C 55.8°F13.2°C 98% 2.1 mph WSW3.4 kmh WSW 5.1 mph8.2 kmh 30.15 in1021.0 mb 0.00 in0.0 mm 0.00 in0.0 mm 0.00 in0.0 mm
03:25 AM 56.2°F13.4°C 55.7°F13.2°C 98% 1.1 mph WSW1.8 kmh WSW 6.8 mph10.9 kmh 30.15 in1021.0 mb 0.00 in0.0 mm 0.00 in0.0 mm 0.00 in0.0 mm
03:20 AM 56.1°F13.4°C 55.6°F13.1°C 98% 0.3 mph WSW0.5 kmh WSW 5.8 mph9.3 kmh 30.14 in1020.7 mb 0.00 in0.0 mm 0.00 in0.0 mm 0.00 in0.0 mm
03:15 AM 56.2°F13.4°C 55.6°F13.1°C 98% Calm Calm -- 30.14 in1020.7 mb 0.00 in0.0 mm 0.00 in0.0 mm 0.00 in0.0 mm
03:10 AM 56.2°F13.4°C 55.6°F13.1°C 98% Calm Calm -- 30.14 in1020.7 mb 0.00 in0.0 mm 0.00 in0.0 mm 0.00 in0.0 mm
03:05 AM 56.2°F13.4°C 55.6°F13.1°C 98% 0.1 mph W0.2 kmh W 1.6 mph2.6 kmh 30.14 in1020.7 mb 0.00 in0.0 mm 0.00 in0.0 mm 0.00 in0.0 mm
03:00 AM 56.1°F13.4°C 55.6°F13.1°C 98% 0.5 mph W0.8 kmh W 2.3 mph3.7 kmh 30.14 in1020.7 mb 0.00 in0.0 mm 0.00 in0.0 mm 0.00 in0.0 mm
02:55 AM 56.1°F13.4°C 55.5°F13.1°C 98% Calm Calm -- 30.14 in1020.7 mb 0.00 in0.0 mm 0.00 in0.0 mm 0.00 in0.0 mm
02:50 AM 56.0°F13.3°C 55.4°F13.0°C 98% Calm Calm -- 30.14 in1020.7 mb 0.00 in0.0 mm 0.00 in0.0 mm 0.00 in0.0 mm
02:45 AM 56.0°F13.3°C 55.4°F13.0°C 98% Calm Calm -- 30.14 in1020.7 mb 0.00 in0.0 mm 0.00 in0.0 mm 0.00 in0.0 mm
02:40 AM 56.0°F13.3°C 55.4°F13.0°C 98% Calm Calm -- 30.14 in1020.7 mb 0.00 in0.0 mm 0.00 in0.0 mm 0.00 in0.0 mm
02:35 AM 56.0°F13.3°C 55.5°F13.1°C 98% Calm Calm -- 30.14 in1020.7 mb 0.00 in0.0 mm 0.00 in0.0 mm 0.00 in0.0 mm
02:30 AM 56.1°F13.4°C 55.5°F13.1°C 98% Calm Calm -- 30.14 in1020.7 mb 0.00 in0.0 mm 0.00 in0.0 mm 0.00 in0.0 mm
02:25 AM 56.1°F13.4°C 55.6°F13.1°C 98% Calm Calm -- 30.14 in1020.7 mb 0.00 in0.0 mm 0.00 in0.0 mm 0.00 in0.0 mm
02:20 AM 56.2°F13.4°C 55.6°F13.1°C 98% Calm Calm -- 30.14 in1020.7 mb 0.00 in0.0 mm 0.00 in0.0 mm 0.00 in0.0 mm
02:15 AM 56.2°F13.4°C 55.6°F13.1°C 98% Calm Calm -- 30.14 in1020.7 mb 0.00 in0.0 mm 0.00 in0.0 mm 0.00 in0.0 mm
02:10 AM 56.2°F13.4°C 55.6°F13.1°C 98% Calm Calm -- 30.14 in1020.7 mb 0.00 in0.0 mm 0.00 in0.0 mm 0.00 in0.0 mm
02:05 AM 56.1°F13.4°C 55.6°F13.1°C 98% Calm Calm -- 30.14 in1020.7 mb 0.00 in0.0 mm 0.00 in0.0 mm 0.00 in0.0 mm
02:00 AM 56.0°F13.3°C 55.4°F13.0°C 98% Calm Calm -- 30.13 in1020.3 mb 0.00 in0.0 mm 0.00 in0.0 mm 0.00 in0.0 mm
01:55 AM 56.0°F13.3°C 55.1°F12.8°C 97% Calm Calm -- 30.13 in1020.3 mb 0.00 in0.0 mm 0.00 in0.0 mm 0.00 in0.0 mm
01:50 AM 55.9°F13.3°C 55.1°F12.8°C 97% Calm Calm -- 30.13 in1020.3 mb 0.00 in0.0 mm 0.00 in0.0 mm 0.00 in0.0 mm
01:45 AM 56.0°F13.3°C 55.1°F12.8°C 97% Calm Calm -- 30.13 in1020.3 mb 0.00 in0.0 mm 0.00 in0.0 mm 0.00 in0.0 mm
01:40 AM 56.1°F13.4°C 55.3°F12.9°C 97% Calm Calm -- 30.13 in1020.3 mb 0.00 in0.0 mm 0.00 in0.0 mm 0.00 in0.0 mm
01:35 AM 56.3°F13.5°C 55.5°F13.1°C 97% Calm Calm -- 30.13 in1020.3 mb 0.00 in0.0 mm 0.00 in0.0 mm 0.00 in0.0 mm
01:30 AM 56.4°F13.6°C 55.6°F13.1°C 97% Calm Calm -- 30.13 in1020.3 mb 0.00 in0.0 mm 0.00 in0.0 mm 0.00 in0.0 mm
01:25 AM 56.5°F13.6°C 55.6°F13.1°C 97% Calm Calm -- 30.13 in1020.3 mb 0.00 in0.0 mm 0.00 in0.0 mm 0.00 in0.0 mm
01:20 AM 56.6°F13.7°C 55.7°F13.2°C 97% Calm Calm -- 30.13 in1020.3 mb 0.00 in0.0 mm 0.00 in0.0 mm 0.00 in0.0 mm
01:15 AM 56.7°F13.7°C 55.8°F13.2°C 97% Calm Calm -- 30.13 in1020.3 mb 0.00 in0.0 mm 0.00 in0.0 mm 0.00 in0.0 mm
01:10 AM 56.7°F13.7°C 55.8°F13.2°C 97% Calm Calm -- 30.13 in1020.3 mb 0.00 in0.0 mm 0.00 in0.0 mm 0.00 in0.0 mm
01:05 AM 56.6°F13.7°C 55.8°F13.2°C 97% 0.2 mph SE0.3 kmh SE 2.1 mph3.4 kmh 30.14 in1020.7 mb 0.00 in0.0 mm 0.00 in0.0 mm 0.00 in0.0 mm
01:00 AM 56.6°F13.7°C 55.8°F13.2°C 97% 0.2 mph SE0.3 kmh SE 1.9 mph3.1 kmh 30.14 in1020.7 mb 0.00 in0.0 mm 0.00 in0.0 mm 0.00 in0.0 mm
12:55 AM 56.6°F13.7°C 55.5°F13.1°C 96% 0.1 mph SE0.2 kmh SE 2.3 mph3.7 kmh 30.14 in1020.7 mb 0.00 in0.0 mm 0.00 in0.0 mm 0.00 in0.0 mm
12:50 AM 56.5°F13.6°C 55.4°F13.0°C 96% Calm Calm -- 30.14 in1020.7 mb 0.00 in0.0 mm 0.00 in0.0 mm 0.00 in0.0 mm
12:45 AM 56.5°F13.6°C 55.4°F13.0°C 96% Calm Calm -- 30.14 in1020.7 mb 0.00 in0.0 mm 0.00 in0.0 mm 0.00 in0.0 mm
12:40 AM 56.6°F13.7°C 55.5°F13.1°C 96% Calm Calm -- 30.14 in1020.7 mb 0.00 in0.0 mm 0.00 in0.0 mm 0.00 in0.0 mm
12:35 AM 56.7°F13.7°C 55.6°F13.1°C 96% Calm Calm -- 30.14 in1020.7 mb 0.00 in0.0 mm 0.00 in0.0 mm 0.00 in0.0 mm
12:30 AM 56.7°F13.7°C 55.6°F13.1°C 96% Calm Calm -- 30.15 in1021.0 mb 0.00 in0.0 mm 0.00 in0.0 mm 0.00 in0.0 mm
12:25 AM 56.8°F13.8°C 55.6°F13.1°C 96% Calm Calm -- 30.14 in1020.7 mb 0.00 in0.0 mm 0.00 in0.0 mm 0.00 in0.0 mm
12:20 AM 56.8°F13.8°C 55.4°F13.0°C 95% Calm Calm -- 30.15 in1021.0 mb 0.00 in0.0 mm 0.00 in0.0 mm 0.00 in0.0 mm
12:15 AM 56.8°F13.8°C 55.4°F13.0°C 95% Calm Calm -- 30.15 in1021.0 mb 0.00 in0.0 mm 0.00 in0.0 mm 0.00 in0.0 mm
12:10 AM 56.9°F13.8°C 55.4°F13.0°C 95% Calm Calm -- 30.15 in1021.0 mb 0.00 in0.0 mm 0.00 in0.0 mm 0.00 in0.0 mm
12:05 AM 56.9°F13.8°C 55.5°F13.1°C 95% Calm Calm -- 30.14 in1020.7 mb 0.00 in0.0 mm 0.00 in0.0 mm 0.00 in0.0 mm
12:00 AM 57.0°F13.9°C 55.5°F13.1°C 95% Calm Calm -- 30.14 in1020.7 mb 0.00 in0.0 mm 0.00 in0.0 mm 0.00 in0.0 mm